Time;durP1;ratioP1;P1;durP2;ratioP2;P2;SDS_P1;SDS_P2;PMS_P1;PMS_P2;Temp;Humidity;BMP_temperature;BMP_pressure;BME280_temperature;BME280_humidity;BME280_pressure;Samples;Min_cycle;Max_cycle;Signal;HPM_P1;HPM_P2
2023/07/23 00:00:29;;;;;;;10.65;7.85;;;;;;;16.99;91.07;100785.53;5114553;28;20020;-64
2023/07/23 00:02:57;;;;;;;10.15;7.68;;;;;;;17.07;91.07;100774.09;5114797;28;20149;-64
2023/07/23 00:05:24;;;;;;;10.68;8.48;;;;;;;17.12;89.69;100774.53;5116869;27;20062;-65
2023/07/23 00:07:50;;;;;;;10.23;7.68;;;;;;;17.08;89.80;100765.03;5114995;27;20072;-64
2023/07/23 00:10:16;;;;;;;13.35;8.77;;;;;;;16.99;89.83;100747.91;5093536;28;20028;-64
2023/07/23 00:12:41;;;;;;;11.77;8.15;;;;;;;17.08;91.53;100766.88;5114442;28;20038;-64
2023/07/23 00:15:07;;;;;;;9.48;7.85;;;;;;;16.94;89.71;100763.63;5096239;28;20118;-64
2023/07/23 00:17:33;;;;;;;10.63;8.43;;;;;;;16.87;89.79;100753.56;5096226;28;20127;-64
2023/07/23 00:19:58;;;;;;;9.02;8.20;;;;;;;16.96;90.35;100750.88;5114535;28;20505;-65
2023/07/23 00:22:25;;;;;;;10.25;8.32;;;;;;;16.95;90.90;100746.50;5114566;28;20440;-65
2023/07/23 00:24:56;;;;;;;11.57;8.15;;;;;;;16.98;90.89;100740.84;5114248;28;20069;-64
2023/07/23 00:27:22;;;;;;;11.55;8.38;;;;;;;16.98;90.81;100731.94;5111929;28;20490;-64
2023/07/23 00:29:47;;;;;;;10.48;8.02;;;;;;;16.86;90.46;100723.16;5112968;28;20069;-65
2023/07/23 00:32:13;;;;;;;12.93;8.30;;;;;;;16.88;90.89;100731.06;5113706;28;20037;-64
2023/07/23 00:34:38;;;;;;;10.52;7.65;;;;;;;16.84;91.17;100737.72;5113175;28;20051;-64
2023/07/23 00:37:04;;;;;;;14.70;8.35;;;;;;;16.84;90.67;100725.13;5114334;28;20466;-64
2023/07/23 00:39:29;;;;;;;11.05;7.97;;;;;;;16.91;91.11;100720.91;5113708;28;20492;-64
2023/07/23 00:41:55;;;;;;;8.73;7.78;;;;;;;16.85;89.55;100710.72;5111676;28;20027;-65
2023/07/23 00:44:20;;;;;;;11.60;8.38;;;;;;;16.85;89.43;100708.03;5113046;28;20019;-64
2023/07/23 00:46:46;;;;;;;9.15;7.90;;;;;;;16.86;89.20;100696.31;5114340;28;20035;-64
2023/07/23 00:49:11;;;;;;;10.05;7.82;;;;;;;16.88;88.78;100709.59;5114016;28;20058;-64
2023/07/23 00:51:38;;;;;;;11.00;7.70;;;;;;;16.87;90.89;100695.31;5095833;28;20550;-64
2023/07/23 00:54:04;;;;;;;12.88;8.02;;;;;;;16.81;88.82;100695.88;5113102;28;20471;-64
2023/07/23 00:56:30;;;;;;;9.70;7.07;;;;;;;16.83;89.09;100687.69;5095365;28;20019;-64
2023/07/23 00:58:56;;;;;;;10.90;7.57;;;;;;;16.79;88.47;100687.97;5095470;28;20015;-64
2023/07/23 01:01:21;;;;;;;10.25;7.63;;;;;;;16.73;89.55;100677.72;5113840;28;20031;-65
2023/07/23 01:03:46;;;;;;;7.40;6.25;;;;;;;16.64;89.03;100683.94;5095607;28;20528;-64
2023/07/23 01:06:13;;;;;;;12.05;6.68;;;;;;;16.62;90.75;100675.22;5095224;28;20026;-64
2023/07/23 01:08:42;;;;;;;10.23;6.75;;;;;;;16.65;89.15;100664.19;5112879;28;20039;-65
2023/07/23 01:11:08;;;;;;;7.43;6.20;;;;;;;16.75;87.78;100662.34;5113647;28;20028;-64
2023/07/23 01:13:36;;;;;;;9.98;6.88;;;;;;;16.80;88.07;100664.63;5110557;28;20030;-64
2023/07/23 01:16:07;;;;;;;9.40;6.55;;;;;;;16.68;89.67;100649.63;5113414;28;20039;-64
2023/07/23 01:18:35;;;;;;;10.90;6.93;;;;;;;16.76;88.80;100653.31;5113271;28;20047;-64
2023/07/23 01:21:01;;;;;;;10.77;7.33;;;;;;;16.67;88.52;100640.69;5113317;28;20477;-64
2023/07/23 01:23:26;;;;;;;11.25;7.28;;;;;;;16.71;87.81;100638.59;5112602;28;20284;-64
2023/07/23 01:25:51;;;;;;;13.27;6.72;;;;;;;16.74;88.24;100643.69;5113244;28;20023;-64
2023/07/23 01:28:17;;;;;;;8.90;6.75;;;;;;;16.66;87.40;100636.31;5113095;28;20019;-64
2023/07/23 01:30:42;;;;;;;8.25;6.97;;;;;;;16.61;89.38;100621.63;5113537;28;20003;-64
2023/07/23 01:33:08;;;;;;;8.68;7.78;;;;;;;16.63;87.97;100633.09;5110760;28;20024;-64
2023/07/23 01:35:34;;;;;;;11.55;7.72;;;;;;;16.61;88.36;100622.47;5112482;28;20413;-64
2023/07/23 01:37:59;;;;;;;11.25;8.43;;;;;;;16.56;86.63;100627.44;5111468;28;20032;-64
2023/07/23 01:40:29;;;;;;;10.52;8.40;;;;;;;16.47;86.80;100606.78;5112203;28;20462;-64
2023/07/23 01:42:54;;;;;;;10.00;7.95;;;;;;;16.50;89.56;100614.53;5112989;28;20023;-64
2023/07/23 01:45:24;;;;;;;10.98;7.88;;;;;;;16.53;86.89;100609.78;5094622;28;20390;-64
2023/07/23 01:47:50;;;;;;;11.10;8.30;;;;;;;16.53;85.88;100611.59;5112975;28;20030;-64
2023/07/23 01:50:15;;;;;;;11.38;7.80;;;;;;;16.55;89.00;100612.28;5113069;28;20561;-65
2023/07/23 01:52:41;;;;;;;11.05;8.40;;;;;;;16.62;86.21;100597.34;5094427;28;20024;-64
2023/07/23 01:55:07;;;;;;;11.52;7.78;;;;;;;16.45;86.17;100600.72;5090091;28;20247;-64
2023/07/23 01:57:32;;;;;;;10.40;7.97;;;;;;;16.49;85.95;100594.06;5112581;28;20027;-64
2023/07/23 01:59:57;;;;;;;9.82;7.38;;;;;;;16.52;86.03;100591.09;5094085;28;20077;-64
2023/07/23 02:02:23;;;;;;;9.00;7.45;;;;;;;16.50;86.16;100591.25;5112531;28;20031;-65
2023/07/23 02:04:48;;;;;;;10.60;8.25;;;;;;;16.48;85.54;100592.38;5112236;28;20501;-64
2023/07/23 02:07:14;;;;;;;9.02;7.40;;;;;;;16.61;84.91;100581.34;5093890;28;20027;-65
2023/07/23 02:09:40;;;;;;;10.88;7.57;;;;;;;16.57;86.24;100576.25;5111898;28;20038;-64
2023/07/23 02:12:05;;;;;;;8.55;7.32;;;;;;;16.49;84.99;100560.00;5112283;28;20027;-64
2023/07/23 02:14:31;;;;;;;10.32;7.05;;;;;;;16.49;84.66;100565.38;5093585;27;20157;-64
2023/07/23 02:16:56;;;;;;;10.23;7.03;;;;;;;16.51;83.81;100558.03;5094047;28;20148;-64
2023/07/23 02:19:22;;;;;;;10.98;7.50;;;;;;;16.47;84.26;100551.28;5111889;28;20496;-64
2023/07/23 02:21:47;;;;;;;13.18;7.28;;;;;;;16.52;84.64;100557.03;5093614;28;20020;-64
2023/07/23 02:24:12;;;;;;;9.02;7.20;;;;;;;16.56;82.98;100555.78;5093329;28;20018;-64
2023/07/23 02:26:38;;;;;;;7.93;6.85;;;;;;;16.51;83.65;100555.34;5112115;28;20030;-64
2023/07/23 02:29:03;;;;;;;8.27;6.65;;;;;;;16.54;85.35;100556.91;5093675;28;20536;-64
2023/07/23 02:31:30;;;;;;;7.72;7.00;;;;;;;16.56;82.73;100553.09;5111191;28;20375;-64
2023/07/23 02:33:55;;;;;;;8.75;6.78;;;;;;;16.52;81.76;100548.16;5090999;28;20030;-64
2023/07/23 02:36:20;;;;;;;12.40;6.55;;;;;;;16.54;82.09;100540.81;5111248;28;20074;-64
2023/07/23 02:38:48;;;;;;;8.23;6.90;;;;;;;16.55;81.30;100550.53;5111498;28;20023;-65
2023/07/23 02:41:13;;;;;;;7.93;6.47;;;;;;;16.52;82.44;100540.09;5110263;28;20027;-65
2023/07/23 02:43:41;;;;;;;9.18;6.57;;;;;;;16.54;82.24;100544.34;5092815;28;20061;-65
2023/07/23 02:46:07;;;;;;;18.75;7.10;;;;;;;16.55;80.85;100537.13;5111366;28;20023;-64
2023/07/23 02:48:32;;;;;;;10.82;6.82;;;;;;;16.50;80.83;100529.50;5111156;28;20098;-65
2023/07/23 02:50:57;;;;;;;11.90;6.65;;;;;;;16.60;79.66;100540.22;5111857;28;20065;-65
2023/07/23 02:53:23;;;;;;;9.02;6.40;;;;;;;16.54;79.64;100524.69;5110226;28;20031;-65
2023/07/23 02:55:51;;;;;;;8.65;6.75;;;;;;;16.54;80.00;100538.97;5110805;28;20148;-65
2023/07/23 02:58:16;;;;;;;8.32;6.10;;;;;;;16.54;79.57;100532.75;5116887;27;20031;-65
2023/07/23 03:00:44;;;;;;;12.00;6.20;;;;;;;16.57;78.67;100537.84;5108477;28;20030;-64
2023/07/23 03:03:09;;;;;;;10.48;6.45;;;;;;;16.56;78.97;100530.78;5089741;28;20020;-65
2023/07/23 03:05:36;;;;;;;7.43;6.60;;;;;;;16.48;80.27;100519.91;5111188;28;20028;-64
2023/07/23 03:08:02;;;;;;;7.78;6.97;;;;;;;16.54;79.39;100527.38;5092307;28;20077;-65
2023/07/23 03:10:28;;;;;;;7.20;6.00;;;;;;;16.54;78.01;100517.47;5109796;28;20044;-64
2023/07/23 03:12:54;;;;;;;7.15;6.40;;;;;;;16.50;78.37;100515.22;5110728;28;20035;-64
2023/07/23 03:15:21;;;;;;;9.95;6.38;;;;;;;16.53;78.06;100517.59;5091742;28;20024;-64
2023/07/23 03:17:47;;;;;;;12.43;6.05;;;;;;;16.53;78.51;100513.13;5091873;28;20051;-64
2023/07/23 03:20:13;;;;;;;7.68;6.20;;;;;;;16.51;78.28;100511.56;5110441;28;20027;-64
2023/07/23 03:22:39;;;;;;;9.88;6.82;;;;;;;16.47;77.69;100515.50;5110597;28;20387;-65
2023/07/23 03:25:04;;;;;;;11.07;5.65;;;;;;;16.55;77.03;100521.00;5091481;28;20077;-64
2023/07/23 03:27:30;;;;;;;7.13;6.22;;;;;;;16.57;76.91;100519.88;5110483;28;20024;-65
2023/07/23 03:29:55;;;;;;;8.15;6.18;;;;;;;16.56;77.05;100518.19;5108413;28;20107;-65
2023/07/23 03:32:23;;;;;;;8.40;6.00;;;;;;;16.53;76.11;100510.44;5109860;28;20386;-65
2023/07/23 03:34:48;;;;;;;9.13;5.82;;;;;;;16.52;76.90;100507.88;5110101;28;20122;-64
2023/07/23 03:37:14;;;;;;;10.40;6.15;;;;;;;16.58;76.47;100513.50;5110705;28;20542;-64
2023/07/23 03:39:39;;;;;;;7.95;5.97;;;;;;;16.64;76.89;100509.41;5089659;28;20062;-64
2023/07/23 03:42:06;;;;;;;11.27;5.47;;;;;;;16.61;75.13;100515.06;5092881;28;20055;-64
2023/07/23 03:44:32;;;;;;;8.90;5.57;;;;;;;16.63;76.41;100513.09;5093008;28;20016;-65
2023/07/23 03:47:18;;;;;;;6.90;5.53;;;;;;;16.64;76.08;100512.09;5111119;28;20020;-64
2023/07/23 03:49:45;;;;;;;11.05;5.90;;;;;;;16.58;74.84;100507.28;5108872;28;20019;-65
2023/07/23 03:52:11;;;;;;;6.40;5.72;;;;;;;16.60;74.35;100520.59;5089860;28;20024;-64
2023/07/23 03:54:37;;;;;;;10.35;6.03;;;;;;;16.57;75.38;100516.34;5090743;28;20076;-65
2023/07/23 03:57:02;;;;;;;9.50;5.68;;;;;;;16.63;74.46;100513.09;5109306;28;20034;-64
2023/07/23 03:59:39;;;;;;;9.50;5.50;;;;;;;16.58;75.01;100518.88;5091016;28;20420;-65
2023/07/23 04:02:05;;;;;;;9.15;5.38;;;;;;;16.62;73.42;100515.91;5091396;28;20118;-65
2023/07/23 04:04:32;;;;;;;6.35;5.15;;;;;;;16.59;74.50;100514.38;5092275;28;20103;-64
2023/07/23 04:06:57;;;;;;;9.10;5.88;;;;;;;16.57;74.86;100506.44;5110700;28;20031;-65
2023/07/23 04:09:23;;;;;;;7.32;5.68;;;;;;;16.61;73.71;100509.69;5110159;28;20451;-64
2023/07/23 04:11:48;;;;;;;10.38;5.97;;;;;;;16.64;73.98;100525.50;5109256;28;20498;-64
2023/07/23 04:14:16;;;;;;;9.93;5.38;;;;;;;16.70;72.61;100516.03;5109112;28;20364;-65
2023/07/23 04:16:41;;;;;;;12.32;6.47;;;;;;;16.63;73.66;100502.34;5091832;28;20016;-64
2023/07/23 04:19:07;;;;;;;7.75;5.20;;;;;;;16.66;72.37;100515.47;5092848;28;20115;-65
2023/07/23 04:21:32;;;;;;;8.90;5.35;;;;;;;16.66;72.83;100515.47;5094523;28;20030;-65
2023/07/23 04:23:58;;;;;;;7.85;5.28;;;;;;;16.69;72.40;100517.88;5113140;28;20027;-65
2023/07/23 04:26:26;;;;;;;8.52;6.45;;;;;;;16.71;73.44;100515.06;5112500;28;20026;-64
2023/07/23 04:28:52;;;;;;;8.77;5.80;;;;;;;16.71;72.59;100518.59;5094743;28;20030;-65
2023/07/23 04:31:18;;;;;;;11.07;5.45;;;;;;;16.74;71.90;100521.00;5092700;28;20024;-64
2023/07/23 04:33:43;;;;;;;6.75;5.20;;;;;;;16.75;72.80;100503.03;5092730;28;20016;-64
2023/07/23 04:36:10;;;;;;;8.00;5.55;;;;;;;16.78;72.65;100521.56;5095208;28;20382;-64
2023/07/23 04:38:35;;;;;;;9.02;5.25;;;;;;;16.78;71.97;100516.19;5093928;28;20027;-65
2023/07/23 04:41:03;;;;;;;5.93;5.15;;;;;;;16.76;72.10;100516.31;5094005;28;20023;-65
2023/07/23 04:43:29;;;;;;;8.75;6.05;;;;;;;16.83;70.74;100524.69;5114152;28;20015;-65
2023/07/23 04:45:54;;;;;;;6.72;5.22;;;;;;;16.84;71.79;100514.78;5114098;28;20489;-65
2023/07/23 04:48:19;;;;;;;8.75;5.60;;;;;;;16.85;72.30;100521.81;5113535;28;20538;-65
2023/07/23 04:50:45;;;;;;;8.20;5.40;;;;;;;16.82;71.27;100511.38;5096032;28;20110;-64
2023/07/23 04:53:10;;;;;;;7.10;5.30;;;;;;;16.84;70.61;100520.16;5113755;28;20039;-65
2023/07/23 04:55:36;;;;;;;8.55;5.10;;;;;;;16.82;70.51;100500.63;5112625;28;20543;-64
2023/07/23 04:58:01;;;;;;;8.15;5.40;;;;;;;16.84;71.52;100512.94;5111569;28;20035;-64
2023/07/23 05:00:27;;;;;;;8.98;5.40;;;;;;;16.85;70.86;100508.41;5112346;28;20497;-64
2023/07/23 05:02:53;;;;;;;6.65;5.25;;;;;;;16.89;72.32;100510.66;5113337;28;20024;-64
2023/07/23 05:05:21;;;;;;;8.65;5.47;;;;;;;16.87;72.14;100506.41;5112288;28;20023;-65
2023/07/23 05:07:47;;;;;;;7.32;5.40;;;;;;;16.90;72.75;100511.50;5115022;27;20034;-65
2023/07/23 05:10:12;;;;;;;8.43;5.60;;;;;;;16.84;71.41;100509.41;5112787;27;20032;-65
2023/07/23 05:12:40;;;;;;;5.95;5.35;;;;;;;16.86;72.54;100518.16;5117322;27;20058;-64
2023/07/23 05:15:16;;;;;;;8.27;5.30;;;;;;;16.83;72.25;100523.84;5111092;28;20119;-64
2023/07/23 05:17:42;;;;;;;9.63;5.82;;;;;;;16.80;73.16;100517.75;5112979;28;20019;-64
2023/07/23 05:20:08;;;;;;;9.40;5.88;;;;;;;16.77;75.08;100512.66;5111358;27;20118;-64
2023/07/23 05:22:38;;;;;;;7.53;5.50;;;;;;;16.74;74.16;100515.63;5114116;28;20031;-65
2023/07/23 05:25:04;;;;;;;7.78;5.60;;;;;;;16.76;75.32;100516.31;5095215;28;20051;-64
2023/07/23 05:27:30;;;;;;;5.70;5.18;;;;;;;16.75;75.48;100522.66;5114021;28;20485;-64
2023/07/23 05:29:55;;;;;;;7.13;5.40;;;;;;;16.76;75.89;100510.13;5112514;28;20088;-64
2023/07/23 05:32:23;;;;;;;9.52;5.53;;;;;;;16.75;75.55;100503.88;5095347;28;20043;-64
2023/07/23 05:34:48;;;;;;;6.47;5.00;;;;;;;16.78;77.23;100511.66;5113922;28;20019;-65
2023/07/23 05:37:14;;;;;;;6.88;5.55;;;;;;;16.78;75.37;100517.03;5095759;28;20034;-64
2023/07/23 05:39:41;;;;;;;8.32;5.68;;;;;;;16.73;78.71;100491.56;5095152;28;20474;-64
2023/07/23 05:42:09;;;;;;;7.03;5.32;;;;;;;16.72;75.35;100503.31;5113717;28;20031;-64
2023/07/23 05:44:37;;;;;;;8.55;5.65;;;;;;;16.71;75.66;100507.84;5112680;28;20023;-64
2023/07/23 05:47:03;;;;;;;6.68;5.50;;;;;;;16.67;76.12;100506.44;5095246;28;20110;-64
2023/07/23 05:49:28;;;;;;;11.55;5.15;;;;;;;16.65;75.90;100511.13;5113432;28;20055;-65
2023/07/23 05:51:58;;;;;;;7.63;5.57;;;;;;;16.69;76.54;100520.56;5113103;28;20523;-64
2023/07/23 05:54:23;;;;;;;;;;;;;;;16.79;75.54;100515.19;5112809;28;20024;-64
2023/07/23 05:56:48;;;;;;;5.60;4.97;;;;;;;16.63;75.45;100505.03;5112946;28;20297;-64
2023/07/23 05:59:14;;;;;;;6.97;5.30;;;;;;;16.62;77.48;100499.78;5111441;28;20478;-64
2023/07/23 06:01:39;;;;;;;11.05;5.38;;;;;;;16.68;76.74;100508.13;5112883;28;20024;-64
2023/07/23 06:04:05;;;;;;;7.25;5.22;;;;;;;16.65;76.92;100500.38;5111782;28;20043;-64
2023/07/23 06:06:30;;;;;;;7.75;5.57;;;;;;;16.73;76.11;100500.47;5110753;28;20020;-64
2023/07/23 06:08:56;;;;;;;6.57;4.80;;;;;;;16.73;75.46;100507.69;5112166;28;20168;-64
2023/07/23 06:11:24;;;;;;;7.78;5.20;;;;;;;16.70;76.50;100506.13;5094439;28;20019;-64
2023/07/23 06:13:49;;;;;;;7.68;5.32;;;;;;;16.69;77.63;100507.13;5074058;28;20028;-64
2023/07/23 06:16:15;;;;;;;9.00;5.22;;;;;;;16.62;77.13;100508.72;5093247;28;20168;-64
2023/07/23 06:18:42;;;;;;;8.25;5.03;;;;;;;16.54;77.38;100500.53;5110150;28;20047;-64
2023/07/23 06:21:08;;;;;;;12.40;6.32;;;;;;;16.45;79.44;100506.75;5110082;28;20028;-65
2023/07/23 06:23:34;;;;;;;8.68;5.53;;;;;;;16.50;80.16;100512.53;5110689;27;20039;-64
2023/07/23 06:26:03;;;;;;;7.82;5.70;;;;;;;16.50;80.70;100517.91;5112288;28;20462;-65
2023/07/23 06:28:30;;;;;;;9.98;5.65;;;;;;;16.43;80.40;100503.38;5093542;28;20031;-64
2023/07/23 06:30:56;;;;;;;7.20;5.60;;;;;;;16.51;80.03;100507.03;5112199;28;20028;-64
2023/07/23 06:33:21;;;;;;;7.07;5.80;;;;;;;16.41;79.62;100510.72;5111760;28;20509;-64
2023/07/23 06:35:50;;;;;;;7.55;5.70;;;;;;;16.43;79.24;100519.47;5094140;28;20024;-64
2023/07/23 06:38:16;;;;;;;9.03;5.73;;;;;;;16.46;80.78;100516.50;5108847;28;20032;-64
2023/07/23 06:40:46;;;;;;;7.57;5.95;;;;;;;16.50;80.23;100529.50;5110232;28;20300;-64
2023/07/23 06:43:11;;;;;;;7.82;5.57;;;;;;;16.51;80.64;100528.50;5093249;28;20019;-64
2023/07/23 06:45:38;;;;;;;8.00;5.47;;;;;;;16.56;79.86;100538.84;5076650;28;20486;-64
2023/07/23 06:48:03;;;;;;;7.82;5.85;;;;;;;16.65;81.35;100535.28;5094307;28;20027;-64
2023/07/23 06:50:31;;;;;;;9.40;6.32;;;;;;;16.66;81.76;100542.34;5090911;28;20051;-64
2023/07/23 06:52:58;;;;;;;9.68;5.60;;;;;;;16.57;81.22;100544.03;5092886;28;20035;-64
2023/07/23 06:55:24;;;;;;;7.70;6.57;;;;;;;16.47;82.19;100553.97;5092321;28;20023;-64
2023/07/23 06:57:49;;;;;;;7.32;5.93;;;;;;;16.44;82.74;100539.94;5111921;28;20039;-64
2023/07/23 07:00:17;;;;;;;8.15;6.13;;;;;;;16.36;84.20;100546.03;5092083;28;20038;-64
2023/07/23 07:02:42;;;;;;;10.80;6.82;;;;;;;16.34;84.14;100535.44;5094504;28;20098;-64
2023/07/23 07:05:10;;;;;;;13.68;6.50;;;;;;;16.23;84.92;100545.47;5112330;28;20558;-64
2023/07/23 07:07:37;;;;;;;9.15;6.25;;;;;;;16.16;86.66;100550.56;5112376;28;20027;-65
2023/07/23 07:10:03;;;;;;;10.05;6.70;;;;;;;16.06;88.34;100542.50;5093568;28;20382;-65
2023/07/23 07:12:29;;;;;;;7.30;6.30;;;;;;;16.05;88.65;100531.91;5110995;28;20027;-64
2023/07/23 07:14:55;;;;;;;11.35;7.35;;;;;;;16.08;90.65;100545.88;5076244;28;20024;-64
2023/07/23 07:17:20;;;;;;;10.35;6.93;;;;;;;15.98;90.22;100531.63;5094188;28;20027;-64
2023/07/23 07:19:46;;;;;;;10.68;7.60;;;;;;;15.96;90.39;100536.25;5091349;28;20043;-65
2023/07/23 07:22:11;;;;;;;8.77;6.85;;;;;;;15.96;91.27;100533.59;5093851;28;20092;-64
2023/07/23 07:24:37;;;;;;;8.43;6.78;;;;;;;15.94;91.39;100540.06;5108530;28;20081;-64
2023/07/23 07:27:08;;;;;;;8.85;7.03;;;;;;;15.92;91.65;100537.53;5092590;28;20173;-65
2023/07/23 07:29:33;;;;;;;11.05;8.07;;;;;;;15.88;92.54;100546.84;5110664;28;20027;-64
2023/07/23 07:32:01;;;;;;;8.65;7.30;;;;;;;15.85;91.74;100539.06;5109883;28;20028;-64
2023/07/23 07:34:28;;;;;;;12.38;7.47;;;;;;;15.86;92.50;100541.63;5092334;28;20424;-64
2023/07/23 07:36:54;;;;;;;9.18;7.07;;;;;;;15.88;92.74;100542.34;5093814;28;20054;-64
2023/07/23 07:39:19;;;;;;;8.20;6.95;;;;;;;15.90;92.55;100548.41;5111395;28;20066;-64
2023/07/23 07:41:47;;;;;;;11.50;8.25;;;;;;;15.94;92.61;100535.53;5092748;28;20038;-64
2023/07/23 07:44:12;;;;;;;10.82;7.03;;;;;;;16.04;91.33;100543.63;5111946;28;20027;-64
2023/07/23 07:46:38;;;;;;;10.65;7.93;;;;;;;16.05;93.18;100545.31;5090686;28;20028;-64
2023/07/23 07:49:04;;;;;;;8.82;7.43;;;;;;;16.09;92.68;100549.44;5110276;28;20051;-64
2023/07/23 07:51:30;;;;;;;11.35;7.50;;;;;;;16.17;91.79;100554.91;5110567;28;20024;-64
2023/07/23 07:53:57;;;;;;;9.80;7.65;;;;;;;16.15;91.29;100545.31;5094725;28;20034;-64
2023/07/23 07:56:23;;;;;;;10.25;7.78;;;;;;;16.22;91.69;100544.63;5115120;28;20475;-64
2023/07/23 07:58:49;;;;;;;8.18;7.35;;;;;;;16.17;92.68;100541.50;5096766;28;20031;-64
2023/07/23 08:01:14;;;;;;;8.90;7.95;;;;;;;16.04;92.27;100535.56;5097045;28;20019;-63
2023/07/23 08:03:42;;;;;;;9.07;8.02;;;;;;;16.06;93.31;100539.81;5115249;28;20072;-64
2023/07/23 08:06:10;;;;;;;9.27;8.35;;;;;;;16.06;93.86;100541.63;5114079;28;20108;-64
2023/07/23 08:08:37;;;;;;;9.10;8.23;;;;;;;16.19;94.79;100539.53;5114629;28;20042;-64
2023/07/23 08:11:04;;;;;;;9.60;7.95;;;;;;;16.17;94.92;100532.59;5114886;28;20023;-64
2023/07/23 08:13:30;;;;;;;8.90;8.07;;;;;;;16.07;95.25;100525.41;5114683;28;20023;-64
2023/07/23 08:15:56;;;;;;;9.15;7.95;;;;;;;16.11;95.00;100536.69;5114937;28;20026;-64
2023/07/23 08:18:22;;;;;;;8.70;7.80;;;;;;;16.18;95.83;100536.97;5113256;28;20032;-64
2023/07/23 08:20:48;;;;;;;9.02;7.57;;;;;;;16.10;96.60;100537.69;5096338;28;20026;-64
2023/07/23 08:23:13;;;;;;;8.00;7.20;;;;;;;16.12;95.62;100535.72;5114813;28;20027;-64
2023/07/23 08:25:42;;;;;;;8.20;7.22;;;;;;;16.01;96.36;100538.53;5113049;28;20099;-64
2023/07/23 08:28:08;;;;;;;7.60;6.72;;;;;;;16.10;97.08;100527.81;5113583;28;20493;-64
2023/07/23 08:30:33;;;;;;;7.25;6.20;;;;;;;16.10;96.65;100527.81;5096201;28;20031;-64
2023/07/23 08:33:00;;;;;;;7.13;6.43;;;;;;;16.19;96.72;100536.00;5114567;28;20019;-64
2023/07/23 08:35:28;;;;;;;7.60;6.68;;;;;;;16.27;97.86;100533.47;5113125;28;20032;-65
2023/07/23 08:37:55;;;;;;;6.47;5.88;;;;;;;16.18;96.59;100545.91;5096414;28;20509;-64
2023/07/23 08:40:21;;;;;;;5.85;5.35;;;;;;;16.23;96.86;100540.94;5112709;28;20031;-64
2023/07/23 08:42:55;;;;;;;6.45;5.85;;;;;;;16.20;97.65;100529.66;5114686;28;20428;-64
2023/07/23 08:46:11;;;;;;;6.60;5.95;;;;;;;16.29;97.67;100534.16;5113257;28;20080;-65
2023/07/23 08:48:50;;;;;;;6.32;5.18;;;;;;;16.31;97.42;100542.94;5068778;28;20518;-65
2023/07/23 08:51:15;;;;;;;5.20;4.63;;;;;;;16.23;98.27;100534.72;5114509;28;20030;-64
2023/07/23 08:53:44;;;;;;;5.57;5.07;;;;;;;16.28;99.25;100536.00;5118553;27;20038;-64
2023/07/23 08:56:09;;;;;;;6.43;5.25;;;;;;;16.26;99.15;100529.06;5134803;27;20155;-64
2023/07/23 08:58:37;;;;;;;5.47;4.97;;;;;;;16.27;99.11;100536.16;5125990;27;20414;-64
2023/07/23 09:01:04;;;;;;;5.30;4.80;;;;;;;16.39;100.00;100540.38;5096207;28;20075;-64
2023/07/23 09:03:34;;;;;;;5.35;4.88;;;;;;;16.44;99.63;100548.00;5112131;28;20024;-65
2023/07/23 09:06:00;;;;;;;5.60;5.10;;;;;;;16.40;98.46;100542.06;5113340;28;20035;-64
2023/07/23 09:08:25;;;;;;;5.15;4.65;;;;;;;16.39;99.49;100542.22;5112863;28;20505;-64
2023/07/23 09:10:51;;;;;;;4.95;4.60;;;;;;;16.33;100.00;100524.84;5095608;28;20050;-64
2023/07/23 09:13:16;;;;;;;5.60;4.32;;;;;;;16.42;100.00;100544.63;5113824;28;20023;-64
2023/07/23 09:15:54;;;;;;;4.90;4.47;;;;;;;16.41;99.95;100550.97;5113529;28;20027;-64
2023/07/23 09:18:20;;;;;;;5.40;4.85;;;;;;;16.42;100.00;100550.84;5112356;28;20060;-64
2023/07/23 09:20:49;;;;;;;4.82;4.43;;;;;;;16.32;100.00;100545.50;5113784;28;20059;-64
2023/07/23 09:23:14;;;;;;;5.15;4.72;;;;;;;16.39;100.00;100547.59;5094301;28;20019;-64
2023/07/23 09:25:43;;;;;;;5.20;4.70;;;;;;;16.33;100.00;100540.97;5111211;28;20028;-64
2023/07/23 09:28:29;;;;;;;4.97;4.57;;;;;;;16.32;100.00;100540.13;5095031;28;20026;-64
2023/07/23 09:30:56;;;;;;;5.20;4.75;;;;;;;16.27;100.00;100545.06;5113049;28;20447;-64
2023/07/23 09:33:29;;;;;;;5.07;4.57;;;;;;;16.34;100.00;100559.59;5094868;28;20038;-64
2023/07/23 09:35:59;;;;;;;4.30;4.00;;;;;;;16.24;100.00;100549.88;5113389;28;20468;-64
2023/07/23 09:38:24;;;;;;;5.20;4.80;;;;;;;16.24;100.00;100557.91;5112610;28;20111;-64
2023/07/23 09:40:50;;;;;;;5.35;4.93;;;;;;;16.27;100.00;100549.56;5093309;28;20035;-64
2023/07/23 09:43:15;;;;;;;4.93;4.53;;;;;;;16.30;100.00;100554.66;5090603;28;20030;-64
2023/07/23 09:45:41;;;;;;;5.85;5.20;;;;;;;16.31;100.00;100556.34;5112008;27;20080;-64
2023/07/23 09:48:07;;;;;;;6.07;5.47;;;;;;;16.40;100.00;100550.13;5101312;28;20027;-64
2023/07/23 09:50:33;;;;;;;5.88;5.28;;;;;;;16.39;100.00;100555.66;5112791;27;20031;-64
2023/07/23 09:52:59;;;;;;;5.30;4.90;;;;;;;16.42;100.00;100552.69;5096452;28;20019;-64
2023/07/23 09:55:24;;;;;;;5.25;4.75;;;;;;;16.44;100.00;100556.06;5112260;28;20031;-64
2023/07/23 09:57:51;;;;;;;5.35;4.95;;;;;;;16.41;100.00;100559.03;5112817;28;20023;-64
2023/07/23 10:00:18;;;;;;;5.47;4.97;;;;;;;16.36;100.00;100556.78;5112438;28;20031;-64
2023/07/23 10:02:48;;;;;;;5.10;4.70;;;;;;;16.28;100.00;100548.56;5113204;27;20027;-65
2023/07/23 10:05:17;;;;;;;4.78;4.38;;;;;;;16.30;100.00;100557.34;5094287;28;20012;-65
2023/07/23 10:07:44;;;;;;;5.72;4.45;;;;;;;16.27;100.00;100558.47;5094297;28;20387;-64
2023/07/23 10:10:12;;;;;;;4.95;4.50;;;;;;;16.31;100.00;100559.03;5111973;28;20023;-64
2023/07/23 10:12:38;;;;;;;4.60;4.20;;;;;;;16.25;100.00;100564.97;5110161;28;20399;-64
2023/07/23 10:15:04;;;;;;;4.63;4.22;;;;;;;16.37;100.00;100565.69;5093899;28;20024;-64
2023/07/23 10:17:30;;;;;;;4.82;4.43;;;;;;;16.37;100.00;100571.88;5093546;28;20035;-64
2023/07/23 10:19:56;;;;;;;5.35;4.10;;;;;;;16.41;100.00;100570.59;5093641;28;20053;-64
2023/07/23 10:22:23;;;;;;;4.82;4.43;;;;;;;16.49;100.00;100569.91;5093478;28;20030;-64
2023/07/23 10:24:52;;;;;;;4.70;4.30;;;;;;;16.38;100.00;100562.00;5111627;28;20043;-64
2023/07/23 10:27:18;;;;;;;4.75;4.30;;;;;;;16.46;100.00;100567.50;5091380;28;21583;-65
2023/07/23 10:30:18;;;;;;;3.95;3.65;;;;;;;16.49;100.00;100564.53;5111979;28;20027;-64
2023/07/23 10:32:45;;;;;;;4.78;4.15;;;;;;;16.42;100.00;100571.47;5091701;28;20020;-64
2023/07/23 10:35:10;;;;;;;4.90;4.50;;;;;;;16.48;100.00;100571.75;5111551;28;20020;-65
2023/07/23 10:37:36;;;;;;;4.30;4.00;;;;;;;16.49;100.00;100569.91;5093747;28;20019;-64
2023/07/23 10:40:03;;;;;;;4.93;4.50;;;;;;;16.51;100.00;100576.84;5092941;28;20020;-64
2023/07/23 10:42:34;;;;;;;4.55;4.15;;;;;;;16.49;100.00;100581.50;5095989;28;20426;-64
2023/07/23 10:45:21;;;;;;;4.93;4.05;;;;;;;16.52;100.00;100569.63;5111033;28;20120;-64
2023/07/23 10:47:48;;;;;;;4.25;3.95;;;;;;;16.52;100.00;100573.16;5105037;28;20085;-64
2023/07/23 10:50:15;;;;;;;4.82;4.53;;;;;;;16.60;100.00;100574.28;5111234;28;20068;-64
2023/07/23 10:52:49;;;;;;;5.00;4.15;;;;;;;16.61;100.00;100573.28;5111941;28;20047;-64
2023/07/23 10:55:47;;;;;;;5.32;4.93;;;;;;;16.65;100.00;100572.00;5111407;28;20111;-64
2023/07/23 10:58:19;;;;;;;4.88;4.10;;;;;;;16.73;100.00;100570.31;5093206;28;20074;-64
2023/07/23 11:00:53;;;;;;;5.47;4.93;;;;;;;16.79;100.00;100567.09;5109376;28;20379;-65
2023/07/23 11:03:20;;;;;;;5.05;4.65;;;;;;;16.82;100.00;100555.19;5111455;27;20035;-64
2023/07/23 11:05:46;;;;;;;5.32;4.82;;;;;;;16.92;100.00;100561.41;5085308;28;20077;-65
2023/07/23 11:08:27;;;;;;;5.30;4.90;;;;;;;16.92;100.00;100574.84;5111185;28;20532;-65
2023/07/23 11:11:03;;;;;;;5.80;5.00;;;;;;;17.02;100.00;100564.06;5093604;28;20027;-65
2023/07/23 11:13:31;;;;;;;4.97;4.57;;;;;;;17.14;100.00;100567.41;5111498;28;20104;-64
2023/07/23 11:15:57;;;;;;;5.68;5.18;;;;;;;17.35;100.00;100570.75;5110129;28;20046;-65
2023/07/23 11:18:22;;;;;;;5.32;4.93;;;;;;;17.34;100.00;100554.78;5110019;28;20514;-65
2023/07/23 11:20:52;;;;;;;6.18;5.63;;;;;;;17.42;100.00;100568.31;5101887;28;20490;-64